»·PEaware :: N737TD L88-L52

N737TD :: L88-L52

FLIGHT INFORMATION

Flight Status: Arrived
Operator: Privately registered:
United States
More flights under this callsign
Pilot: Sterling Y. (23248)
Aircraft: CESSNA 172 SKYHAWK
(C172)
More flights by this aircraft type
Origin: L88 New Cuyama
United States
Destination: L52 Oceano Co
United States
More flights between these airports :: More routes between these airports
Route:
File this flight plan on PilotEdge
Remarks:
Altitude:
(Current/Filed)
6,500ft
Speed:
(Current/Filed)
120kts
Departed: 02-Feb-19 04:51 PM
Arrived: 02-Feb-19 05:26 PM
Distance/Time
Traveled:
118nm/0:35
Distance/Time
To Go:
Arrived

Flight Plot

Page will automatically refresh every two minutes.


Map Options




Map Legend


Flown Route
Filed Route
Departure Airport
Arrival Airport
Navaid (VOR, NDB)
Fix

Horizontal Profiles

Position Reports

Time Latitude Longitude Heading Altitude Ground
Speed
02-Feb-19 16:48 34.943077 -119.690817 173 2158ft 0kts
02-Feb-19 16:49 34.943020 -119.690826 198 2158ft 3kts
02-Feb-19 16:50 34.937807 -119.678586 96 2485ft 70kts
02-Feb-19 16:51 34.931774 -119.652862 107 3254ft 82kts
02-Feb-19 16:52 34.927436 -119.624111 84 4014ft 89kts
02-Feb-19 16:53 34.944789 -119.624640 295 4665ft 99kts
02-Feb-19 16:54 34.953376 -119.659209 287 5148ft 109kts
02-Feb-19 16:55 34.960817 -119.696244 283 5606ft 111kts
02-Feb-19 16:56 34.970756 -119.732832 279 5988ft 114kts
02-Feb-19 16:57 34.976490 -119.771044 281 6369ft 114kts
02-Feb-19 16:58 34.989941 -119.806570 304 6705ft 114kts
02-Feb-19 16:59 35.001352 -119.844310 288 6927ft 119kts
02-Feb-19 17:00 35.009903 -119.884581 278 7076ft 122kts
02-Feb-19 17:01 35.016849 -119.927240 281 6988ft 131kts
02-Feb-19 17:02 35.021433 -119.972254 271 6864ft 131kts
02-Feb-19 17:03 35.029863 -120.016649 293 6631ft 136kts
02-Feb-19 17:04 35.043918 -120.058912 288 6382ft 122kts
02-Feb-19 17:05 35.055828 -120.096682 296 6139ft 116kts
02-Feb-19 17:06 35.070298 -120.130571 293 6123ft 102kts
02-Feb-19 17:07 35.077819 -120.164060 278 6245ft 103kts
02-Feb-19 17:08 35.079184 -120.198597 266 6627ft 103kts
02-Feb-19 17:09 35.077503 -120.234463 263 6984ft 106kts
02-Feb-19 17:10 35.075114 -120.272094 270 7123ft 120kts
02-Feb-19 17:11 35.076296 -120.315260 280 6873ft 134kts
02-Feb-19 17:12 35.085980 -120.359284 291 5596ft 134kts
02-Feb-19 17:13 35.100962 -120.399189 299 4509ft 129kts
02-Feb-19 17:14 35.107091 -120.415775 290 3973ft 133kts
02-Feb-19 17:15 35.107091 -120.415775 290 3973ft 133kts
02-Feb-19 17:16 35.107091 -120.415775 290 3973ft 133kts
02-Feb-19 17:17 35.110270 -120.433327 280 3509ft 131kts
02-Feb-19 17:18 35.116397 -120.476602 279 2461ft 125kts
02-Feb-19 17:19 35.122840 -120.518557 285 1605ft 111kts
02-Feb-19 17:20 35.128583 -120.553197 285 1286ft 99kts
02-Feb-19 17:21 35.135312 -120.585309 286 1045ft 92kts
02-Feb-19 17:22 35.140925 -120.615424 267 893ft 89kts
02-Feb-19 17:23 35.132081 -120.639623 207 872ft 79kts
02-Feb-19 17:24 35.110385 -120.638617 138 509ft 96kts
02-Feb-19 17:25 35.100894 -120.621041 120 20ft 15kts
02-Feb-19 17:26 35.100207 -120.620776 299 20ft 8kts
02-Feb-19 17:27 35.102788 -120.625556 307 18ft 6kts
02-Feb-19 17:28 35.103639 -120.625103 43 18ft 0kts
02-Feb-19 17:29 35.103699 -120.625034 43 18ft 0kts
02-Feb-19 17:30 35.103769 -120.624953 43 18ft 0kts
02-Feb-19 17:31 35.103778 -120.624943 43 18ft 0kts
02-Feb-19 17:32 35.103778 -120.624943 43 18ft 0kts
02-Feb-19 17:33 35.103778 -120.624943 43 18ft 0kts
02-Feb-19 17:34 35.103778 -120.624943 43 18ft 0kts
02-Feb-19 17:35 35.103778 -120.624943 43 18ft 0kts
02-Feb-19 17:36 35.103778 -120.624943 43 18ft 0kts
02-Feb-19 17:37 33.676323 -117.871028 206 60ft 0kts
02-Feb-19 17:39 33.676323 -117.871028 206 60ft 0kts

Navigation Log

Ident Type
Flight plan parsing failed, navigation log unavailable